Time;durP1;ratioP1;P1;durP2;ratioP2;P2;SDS_P1;SDS_P2;PMS_P1;PMS_P2;Temp;Humidity;BMP_temperature;BMP_pressure;BME280_temperature;BME280_humidity;BME280_pressure;Samples;Min_cycle;Max_cycle;Signal;HPM_P1;HPM_P2
2022/09/18 00:01:18;;;;;;;8.20;2.28;;;11.60;99.90;;;;;;6181700;23;20059;-72
2022/09/18 00:03:45;;;;;;;5.15;1.20;;;11.60;99.90;;;;;;6180931;23;20434;-72
2022/09/18 00:06:13;;;;;;;9.35;1.25;;;11.60;99.90;;;;;;6181360;23;20024;-73
2022/09/18 00:08:39;;;;;;;9.20;1.55;;;11.70;99.90;;;;;;6182311;23;20438;-72
2022/09/18 00:11:07;;;;;;;8.70;1.40;;;11.60;99.90;;;;;;6183077;23;20331;-72
2022/09/18 00:13:35;;;;;;;8.77;1.40;;;11.70;99.90;;;;;;6183206;23;20001;-72
2022/09/18 00:16:01;;;;;;;10.88;1.52;;;11.70;99.90;;;;;;6181276;23;20005;-72
2022/09/18 00:18:27;;;;;;;8.90;2.10;;;11.70;99.90;;;;;;6180967;23;20005;-72
2022/09/18 00:20:52;;;;;;;4.68;1.10;;;11.70;99.90;;;;;;6180986;23;20399;-72
2022/09/18 00:23:18;;;;;;;5.10;1.15;;;11.70;99.90;;;;;;6183418;23;20027;-72
2022/09/18 00:25:44;;;;;;;9.27;1.58;;;11.70;99.90;;;;;;6182491;23;20343;-72
2022/09/18 00:28:09;;;;;;;6.78;1.38;;;11.80;99.90;;;;;;6183165;23;20020;-73
2022/09/18 00:30:35;;;;;;;4.07;1.15;;;11.70;99.90;;;;;;6181514;23;20100;-72
2022/09/18 00:33:00;;;;;;;12.57;1.48;;;11.80;99.90;;;;;;6182020;23;20105;-72
2022/09/18 00:35:26;;;;;;;8.55;1.20;;;11.80;99.90;;;;;;6183459;23;20001;-72
2022/09/18 00:37:51;;;;;;;9.88;2.15;;;11.80;99.90;;;;;;6182544;23;20005;-72
2022/09/18 00:40:17;;;;;;;10.93;1.98;;;11.80;99.90;;;;;;6181786;23;20041;-72
2022/09/18 00:42:43;;;;;;;6.78;2.35;;;11.90;99.90;;;;;;6182711;23;20120;-72
2022/09/18 00:45:12;;;;;;;7.68;1.23;;;11.80;99.90;;;;;;6183075;23;20035;-73
2022/09/18 00:47:43;;;;;;;10.60;2.80;;;11.70;99.90;;;;;;6182308;23;20028;-72
2022/09/18 00:50:22;;;;;;;8.18;1.00;;;11.80;99.90;;;;;;6184588;23;20044;-72
2022/09/18 00:52:58;;;;;;;13.55;1.92;;;11.80;99.90;;;;;;6182879;23;20001;-72
2022/09/18 00:55:29;;;;;;;14.13;2.20;;;11.80;99.90;;;;;;6182472;23;20016;-72
2022/09/18 00:57:57;;;;;;;10.88;1.80;;;11.90;99.90;;;;;;6182845;23;20028;-72
2022/09/18 01:00:23;;;;;;;6.63;1.15;;;11.90;99.90;;;;;;6183288;23;20005;-72
2022/09/18 01:02:49;;;;;;;8.43;2.85;;;11.90;99.90;;;;;;6182769;23;20008;-71
2022/09/18 01:05:24;;;;;;;6.88;1.55;;;11.90;99.90;;;;;;6184456;23;20016;-72
2022/09/18 01:08:15;;;;;;;5.85;1.23;;;11.90;99.90;;;;;;6181032;23;20004;-72
2022/09/18 01:11:10;;;;;;;7.13;1.25;;;11.80;99.90;;;;;;6182569;23;20001;-72
2022/09/18 01:13:53;;;;;;;6.28;1.23;;;11.90;99.90;;;;;;6182857;23;20083;-73
2022/09/18 01:16:25;;;;;;;9.82;1.33;;;11.90;99.90;;;;;;6182856;23;20044;-72
2022/09/18 01:18:54;;;;;;;13.57;1.67;;;11.80;99.90;;;;;;6182248;23;20478;-72
2022/09/18 01:21:29;;;;;;;9.48;1.48;;;11.90;99.90;;;;;;6183031;23;20055;-72
2022/09/18 01:24:41;;;;;;;12.02;1.52;;;11.90;99.90;;;;;;6182587;23;20005;-72
2022/09/18 01:27:15;;;;;;;13.70;2.00;;;11.90;99.90;;;;;;6182586;23;20556;-72
2022/09/18 01:30:10;;;;;;;7.38;1.38;;;11.80;99.90;;;;;;6182476;23;20080;-72
2022/09/18 01:32:58;;;;;;;13.10;1.20;;;11.80;99.90;;;;;;6156767;23;20005;-72
2022/09/18 01:35:26;;;;;;;8.77;1.27;;;11.80;99.90;;;;;;6183009;23;20001;-72
2022/09/18 01:38:15;;;;;;;6.10;1.27;;;11.80;99.90;;;;;;6180760;23;20071;-73
2022/09/18 01:40:50;;;;;;;7.38;1.40;;;11.80;99.90;;;;;;6181705;23;20088;-72
2022/09/18 01:43:17;;;;;;;7.05;1.13;;;11.80;99.90;;;;;;6182839;23;20008;-73
2022/09/18 01:45:46;;;;;;;5.18;1.38;;;11.80;99.90;;;;;;6181602;23;20035;-72
2022/09/18 01:48:25;;;;;;;7.88;1.35;;;11.90;99.90;;;;;;6182557;23;20001;-73
2022/09/18 01:50:59;;;;;;;9.75;1.02;;;11.80;99.90;;;;;;6182254;23;20076;-73
2022/09/18 01:53:33;;;;;;;8.90;1.10;;;11.80;99.90;;;;;;6182670;23;20063;-72
2022/09/18 01:56:06;;;;;;;5.00;0.90;;;11.80;99.90;;;;;;6182319;23;20061;-73
2022/09/18 01:58:33;;;;;;;6.50;1.17;;;11.80;99.90;;;;;;6182610;23;20011;-73
2022/09/18 02:01:04;;;;;;;7.82;1.08;;;11.90;99.90;;;;;;6181604;23;20008;-72
2022/09/18 02:03:38;;;;;;;6.70;1.42;;;11.80;99.90;;;;;;6182557;23;20072;-73
2022/09/18 02:06:18;;;;;;;8.70;0.88;;;11.90;99.90;;;;;;6182830;23;20075;-73
2022/09/18 02:08:47;;;;;;;5.05;1.10;;;11.90;99.90;;;;;;6181983;23;20016;-72
2022/09/18 02:11:15;;;;;;;7.93;0.98;;;11.80;99.90;;;;;;6182579;23;20001;-73
2022/09/18 02:14:04;;;;;;;7.32;1.52;;;11.90;99.90;;;;;;6182071;23;20252;-73
2022/09/18 02:16:49;;;;;;;4.15;0.95;;;12.00;99.90;;;;;;6182060;23;20001;-73
2022/09/18 02:19:36;;;;;;;8.93;1.42;;;11.90;99.90;;;;;;6182311;23;20001;-73
2022/09/18 02:22:08;;;;;;;7.90;1.63;;;11.80;99.90;;;;;;6182125;23;20331;-74
2022/09/18 02:24:37;;;;;;;11.75;1.27;;;11.80;99.90;;;;;;6182511;23;20002;-73
2022/09/18 02:27:05;;;;;;;9.48;1.33;;;11.90;99.90;;;;;;6181848;23;20008;-73
2022/09/18 02:29:32;;;;;;;9.52;1.98;;;12.60;99.90;;;;;;6181470;23;20008;-73
2022/09/18 02:31:59;;;;;;;10.55;1.27;;;11.80;99.90;;;;;;6181930;23;20016;-74
2022/09/18 02:34:25;;;;;;;7.10;1.58;;;11.70;99.90;;;;;;6182123;23;20011;-73
2022/09/18 02:37:33;;;;;;;8.35;1.35;;;11.80;99.90;;;;;;6181940;23;20008;-72
2022/09/18 02:40:10;;;;;;;14.90;4.15;;;11.80;99.90;;;;;;6181615;23;20017;-74
2022/09/18 02:43:01;;;;;;;7.85;1.02;;;11.70;99.90;;;;;;6182279;23;20001;-73
2022/09/18 02:45:49;;;;;;;5.68;1.15;;;11.80;99.90;;;;;;6181674;23;20453;-73
2022/09/18 02:48:20;;;;;;;9.95;1.58;;;11.80;99.90;;;;;;6182106;23;20071;-73
2022/09/18 02:51:03;;;;;;;10.85;1.23;;;11.80;99.90;;;;;;6181633;23;20028;-73
2022/09/18 02:53:37;;;;;;;6.47;1.70;;;11.80;99.90;;;;;;6182250;23;20007;-73
2022/09/18 02:56:09;;;;;;;5.20;1.88;;;11.70;99.90;;;;;;6180773;23;20077;-73
2022/09/18 02:58:51;;;;;;;11.40;1.80;;;11.70;99.90;;;;;;6181122;23;20036;-72
2022/09/18 03:01:19;;;;;;;10.40;1.45;;;11.70;99.90;;;;;;6182307;23;20084;-73
2022/09/18 03:03:45;;;;;;;7.95;1.23;;;11.40;99.90;;;;;;6179892;23;20378;-72
2022/09/18 03:06:11;;;;;;;7.07;0.80;;;11.70;99.90;;;;;;6182346;23;19997;-73
2022/09/18 03:08:36;;;;;;;6.13;1.30;;;11.70;99.90;;;;;;6181795;23;20383;-73
2022/09/18 03:11:02;;;;;;;10.20;1.98;;;11.80;99.90;;;;;;6181453;23;20009;-72
2022/09/18 03:13:28;;;;;;;10.73;1.27;;;11.80;99.90;;;;;;6184428;23;20001;-72
2022/09/18 03:15:56;;;;;;;5.82;1.27;;;11.80;99.90;;;;;;6184601;23;20036;-73
2022/09/18 03:18:23;;;;;;;6.95;1.15;;;11.70;99.90;;;;;;6182125;23;20005;-73
2022/09/18 03:20:48;;;;;;;10.25;1.58;;;11.70;99.90;;;;;;6181551;23;20009;-73
2022/09/18 03:23:14;;;;;;;9.70;0.95;;;11.80;99.90;;;;;;6189484;23;20008;-73
2022/09/18 03:25:39;;;;;;;5.28;1.63;;;11.90;99.90;;;;;;6184564;23;20004;-72
2022/09/18 03:28:05;;;;;;;10.15;1.83;;;11.80;99.90;;;;;;6182549;23;20075;-72
2022/09/18 03:30:30;;;;;;;6.78;1.00;;;11.80;99.90;;;;;;6182685;23;20375;-73
2022/09/18 03:32:57;;;;;;;8.43;2.50;;;11.80;99.90;;;;;;6181574;23;20051;-73
2022/09/18 03:35:22;;;;;;;7.32;0.88;;;11.70;99.90;;;;;;6182323;23;20083;-72
2022/09/18 03:37:48;;;;;;;6.68;0.70;;;11.70;99.90;;;;;;6181387;23;20048;-73
2022/09/18 03:40:17;;;;;;;5.35;1.02;;;11.80;99.90;;;;;;6180389;23;20009;-72
2022/09/18 03:42:43;;;;;;;4.93;1.08;;;11.70;99.90;;;;;;6182104;23;20001;-72
2022/09/18 03:45:10;;;;;;;7.40;1.30;;;11.60;99.90;;;;;;6183867;23;20076;-72
2022/09/18 03:47:36;;;;;;;7.93;0.95;;;11.60;99.90;;;;;;6183829;23;20032;-73
2022/09/18 03:50:04;;;;;;;4.85;0.65;;;11.60;99.90;;;;;;6183231;23;20435;-72
2022/09/18 03:52:30;;;;;;;8.25;1.38;;;11.70;99.90;;;;;;6183338;23;20024;-72
2022/09/18 03:54:56;;;;;;;12.02;1.23;;;11.70;99.90;;;;;;6181514;23;20423;-73
2022/09/18 03:57:21;;;;;;;12.55;2.08;;;11.70;99.90;;;;;;6183393;23;20005;-73
2022/09/18 03:59:47;;;;;;;6.25;1.15;;;11.70;99.90;;;;;;6181213;23;20028;-72
2022/09/18 04:02:12;;;;;;;5.25;1.13;;;11.70;99.90;;;;;;6183846;23;20033;-73
2022/09/18 04:04:38;;;;;;;5.50;0.88;;;11.80;99.90;;;;;;6183492;23;20051;-72
2022/09/18 04:07:04;;;;;;;7.93;1.10;;;11.90;99.90;;;;;;6183731;23;20001;-73
2022/09/18 04:09:29;;;;;;;6.65;1.00;;;12.00;99.90;;;;;;6183718;23;20005;-72
2022/09/18 04:11:55;;;;;;;5.93;1.00;;;11.70;99.90;;;;;;6182667;23;20066;-73
2022/09/18 04:14:21;;;;;;;8.05;0.93;;;11.10;99.90;;;;;;6183706;23;20005;-72
2022/09/18 04:16:48;;;;;;;10.95;2.13;;;11.70;99.90;;;;;;6181281;23;20009;-72
2022/09/18 04:19:13;;;;;;;7.00;1.10;;;11.80;99.90;;;;;;6183546;23;20005;-72
2022/09/18 04:21:39;;;;;;;7.10;1.20;;;11.70;99.90;;;;;;6183187;23;20071;-73
2022/09/18 04:24:05;;;;;;;4.18;1.05;;;11.70;99.90;;;;;;6182936;23;20047;-73
2022/09/18 04:26:32;;;;;;;17.77;1.30;;;11.70;99.90;;;;;;6182625;23;20493;-72
2022/09/18 04:28:58;;;;;;;4.65;0.65;;;11.60;99.90;;;;;;6183137;23;20063;-72
2022/09/18 04:31:23;;;;;;;11.90;1.77;;;11.60;99.90;;;;;;6183569;23;20076;-72
2022/09/18 04:33:49;;;;;;;1.85;0.88;;;11.60;99.90;;;;;;6183006;23;20005;-72
2022/09/18 04:36:14;;;;;;;5.80;1.63;;;11.50;99.90;;;;;;6183698;23;20005;-72
2022/09/18 04:38:40;;;;;;;2.30;0.60;;;11.60;99.90;;;;;;6183055;23;20037;-72
2022/09/18 04:41:05;;;;;;;3.08;0.70;;;11.60;99.90;;;;;;6182513;23;20033;-73
2022/09/18 04:43:31;;;;;;;6.88;0.98;;;11.60;99.90;;;;;;6183361;23;20378;-73
2022/09/18 04:45:57;;;;;;;5.47;0.90;;;11.60;99.90;;;;;;6182953;23;20001;-72
2022/09/18 04:48:22;;;;;;;3.80;0.75;;;11.60;99.90;;;;;;6183188;23;20033;-72
2022/09/18 04:50:48;;;;;;;3.40;0.60;;;11.60;99.90;;;;;;6182800;23;20008;-72
2022/09/18 04:53:14;;;;;;;7.65;1.35;;;11.60;99.90;;;;;;6181472;23;20075;-72
2022/09/18 04:55:43;;;;;;;7.20;1.13;;;11.70;99.90;;;;;;6182324;23;20001;-72
2022/09/18 04:58:09;;;;;;;10.82;0.85;;;11.60;99.90;;;;;;6183276;23;20001;-72
2022/09/18 05:00:34;;;;;;;9.13;0.85;;;11.50;99.90;;;;;;6183178;23;20015;-73
2022/09/18 05:03:00;;;;;;;11.23;1.42;;;11.60;99.90;;;;;;6182826;23;20001;-72
2022/09/18 05:05:27;;;;;;;8.73;0.77;;;11.60;99.90;;;;;;6183091;23;20076;-73
2022/09/18 05:07:52;;;;;;;3.38;0.77;;;11.60;99.90;;;;;;6182576;23;20445;-72
2022/09/18 05:10:18;;;;;;;7.45;1.20;;;11.50;99.90;;;;;;6182649;23;20084;-72
2022/09/18 05:12:44;;;;;;;4.85;0.90;;;11.60;99.90;;;;;;6182444;23;20427;-72
2022/09/18 05:15:10;;;;;;;4.32;0.60;;;11.60;99.90;;;;;;6181620;23;20084;-72
2022/09/18 05:17:39;;;;;;;6.10;0.85;;;11.50;99.90;;;;;;6182775;23;20446;-72
2022/09/18 05:20:08;;;;;;;4.28;0.90;;;11.50;99.90;;;;;;6182963;23;20009;-73
2022/09/18 05:22:34;;;;;;;8.85;0.98;;;11.60;99.90;;;;;;6181263;23;20008;-73
2022/09/18 05:25:00;;;;;;;3.28;0.60;;;11.60;99.90;;;;;;6181777;23;19997;-72
2022/09/18 05:27:25;;;;;;;5.82;1.23;;;11.60;99.90;;;;;;6181063;23;20026;-72
2022/09/18 05:29:51;;;;;;;3.35;0.75;;;11.50;99.90;;;;;;6182627;23;20454;-72
2022/09/18 05:32:19;;;;;;;4.03;0.60;;;9.50;99.90;;;;;;6182957;23;20077;-71
2022/09/18 05:34:45;;;;;;;7.07;1.00;;;11.50;99.90;;;;;;6182541;23;20390;-72
2022/09/18 05:37:12;;;;;;;5.55;0.70;;;11.50;99.90;;;;;;6183809;23;20268;-72
2022/09/18 05:39:37;;;;;;;6.07;0.88;;;11.60;99.90;;;;;;6181494;23;20005;-72
2022/09/18 05:42:03;;;;;;;5.80;0.95;;;11.60;99.90;;;;;;6182726;23;20128;-71
2022/09/18 05:44:28;;;;;;;7.97;0.82;;;11.60;99.90;;;;;;6182346;23;20059;-72
2022/09/18 05:46:54;;;;;;;10.68;1.10;;;11.50;99.90;;;;;;6181969;23;20001;-71
2022/09/18 05:49:20;;;;;;;3.65;0.70;;;11.60;99.90;;;;;;6183169;23;20005;-72
2022/09/18 05:51:45;;;;;;;5.55;0.98;;;11.50;99.90;;;;;;6182349;23;20012;-71
2022/09/18 05:54:11;;;;;;;5.25;0.60;;;11.60;99.90;;;;;;6182618;23;20488;-71
2022/09/18 05:56:37;;;;;;;5.03;0.68;;;11.40;99.90;;;;;;6182317;23;20009;-72
2022/09/18 05:59:02;;;;;;;9.25;0.88;;;11.50;99.90;;;;;;6182166;23;20319;-71
2022/09/18 06:01:29;;;;;;;3.30;0.80;;;11.80;99.90;;;;;;6182308;23;20009;-71
2022/09/18 06:03:55;;;;;;;4.70;0.85;;;11.60;99.90;;;;;;6179728;23;20312;-71
2022/09/18 06:06:20;;;;;;;9.40;0.80;;;11.60;99.90;;;;;;6181300;23;20024;-71
2022/09/18 06:08:46;;;;;;;7.82;0.88;;;;;;;;;;6181524;23;20008;-71
2022/09/18 06:11:12;;;;;;;7.65;0.77;;;11.60;99.90;;;;;;6182120;23;20005;-71
2022/09/18 06:13:37;;;;;;;2.85;0.82;;;11.80;99.90;;;;;;6181340;23;20076;-71
2022/09/18 06:16:03;;;;;;;2.92;0.80;;;11.70;99.90;;;;;;6181362;23;20442;-71
2022/09/18 06:18:28;;;;;;;6.40;1.13;;;11.80;99.90;;;;;;6181166;23;20004;-72
2022/09/18 06:20:56;;;;;;;4.13;0.52;;;11.80;99.90;;;;;;6180512;23;20437;-71
2022/09/18 06:23:23;;;;;;;3.40;0.68;;;11.80;99.90;;;;;;6181624;23;20104;-71
2022/09/18 06:25:59;;;;;;;5.47;0.60;;;11.80;99.90;;;;;;6180893;23;20439;-72
2022/09/18 06:28:25;;;;;;;2.47;0.47;;;11.80;99.90;;;;;;6181306;23;20080;-71
2022/09/18 06:30:50;;;;;;;1.95;0.52;;;11.90;99.90;;;;;;6181618;23;20001;-72
2022/09/18 06:33:16;;;;;;;5.95;0.65;;;11.90;99.90;;;;;;6182322;23;20448;-72
2022/09/18 06:35:41;;;;;;;2.85;0.45;;;11.90;99.90;;;;;;6181338;23;20322;-72
2022/09/18 06:38:09;;;;;;;4.25;0.50;;;11.90;99.90;;;;;;6180653;23;20001;-72
2022/09/18 06:40:35;;;;;;;3.25;0.47;;;11.80;99.90;;;;;;6182141;23;20264;-72
2022/09/18 06:43:02;;;;;;;2.20;0.40;;;11.90;99.90;;;;;;6181458;23;20438;-71
2022/09/18 06:45:29;;;;;;;3.65;0.60;;;11.80;99.90;;;;;;6182204;23;20005;-71
2022/09/18 06:48:00;;;;;;;3.90;0.65;;;11.80;99.90;;;;;;6181678;23;20005;-71
2022/09/18 06:50:25;;;;;;;3.03;0.65;;;11.80;99.90;;;;;;6181703;23;20122;-72
2022/09/18 06:52:51;;;;;;;2.85;0.85;;;12.00;99.90;;;;;;6181633;23;20028;-72
2022/09/18 06:55:17;;;;;;;3.45;0.93;;;12.00;99.90;;;;;;6182293;23;20005;-72
2022/09/18 06:57:55;;;;;;;5.82;0.68;;;12.10;99.90;;;;;;6181609;23;20029;-72
2022/09/18 07:00:21;;;;;;;3.08;0.60;;;12.10;99.90;;;;;;6182149;23;20008;-72
2022/09/18 07:02:54;;;;;;;7.72;0.80;;;12.10;99.90;;;;;;6181584;23;20327;-72
2022/09/18 07:05:19;;;;;;;4.03;0.60;;;12.20;99.90;;;;;;6181768;23;20001;-71
2022/09/18 07:07:45;;;;;;;4.68;0.45;;;12.20;99.90;;;;;;6179843;23;20434;-72
2022/09/18 07:10:10;;;;;;;4.13;0.60;;;12.20;99.90;;;;;;6181152;23;20005;-72
2022/09/18 07:12:36;;;;;;;4.07;0.50;;;12.30;99.90;;;;;;6181220;23;20378;-71
2022/09/18 07:15:02;;;;;;;3.92;0.57;;;12.30;99.90;;;;;;6181002;23;20040;-71
2022/09/18 07:17:27;;;;;;;5.75;0.85;;;12.30;99.90;;;;;;6183274;23;20005;-72
2022/09/18 07:19:53;;;;;;;2.53;0.55;;;12.30;99.90;;;;;;6182700;23;20326;-71
2022/09/18 07:22:18;;;;;;;6.10;0.90;;;12.40;99.90;;;;;;6183717;23;20004;-71
2022/09/18 07:24:44;;;;;;;6.43;0.73;;;12.40;99.90;;;;;;6183696;23;20541;-72
2022/09/18 07:27:09;;;;;;;2.90;0.73;;;12.40;99.90;;;;;;6184003;23;20020;-72
2022/09/18 07:29:35;;;;;;;4.35;1.17;;;12.40;99.90;;;;;;6183778;23;19997;-71
2022/09/18 07:32:00;;;;;;;8.30;2.05;;;12.50;99.90;;;;;;6183621;23;20500;-72
2022/09/18 07:34:27;;;;;;;8.20;1.10;;;12.50;99.90;;;;;;6183357;23;20383;-72
2022/09/18 07:36:52;;;;;;;7.82;1.20;;;12.50;99.90;;;;;;6183738;23;20583;-71
2022/09/18 07:39:18;;;;;;;3.30;1.00;;;12.70;99.90;;;;;;6183849;23;20092;-71
2022/09/18 07:41:44;;;;;;;2.63;1.33;;;12.70;99.90;;;;;;6182450;23;20040;-72
2022/09/18 07:44:09;;;;;;;6.10;0.90;;;12.80;99.90;;;;;;6184021;23;20005;-72
2022/09/18 07:46:35;;;;;;;2.30;0.50;;;12.90;99.90;;;;;;6183580;23;20048;-72
2022/09/18 07:49:00;;;;;;;2.42;0.47;;;12.90;99.90;;;;;;6182654;23;20001;-72
2022/09/18 07:51:26;;;;;;;5.88;0.82;;;13.00;99.90;;;;;;6182700;23;20007;-72
2022/09/18 07:53:51;;;;;;;6.30;1.08;;;13.00;99.90;;;;;;6182834;23;20001;-71
2022/09/18 07:56:17;;;;;;;4.97;0.30;;;13.00;99.90;;;;;;6182164;23;19993;-71
2022/09/18 07:58:43;;;;;;;3.03;0.60;;;13.10;99.90;;;;;;6183186;23;20001;-71
2022/09/18 08:01:08;;;;;;;3.25;0.85;;;13.10;99.90;;;;;;6183933;23;20005;-71
2022/09/18 08:03:34;;;;;;;6.97;1.13;;;13.10;99.90;;;;;;6183211;23;20028;-70
2022/09/18 08:06:00;;;;;;;5.50;0.60;;;13.10;99.90;;;;;;6182755;23;20080;-71
2022/09/18 08:08:26;;;;;;;4.72;0.60;;;13.10;99.90;;;;;;6183369;23;20036;-71
2022/09/18 08:10:54;;;;;;;2.28;0.70;;;13.20;99.90;;;;;;6182989;23;20032;-70
2022/09/18 08:13:19;;;;;;;4.88;0.75;;;13.10;99.90;;;;;;6184513;23;20009;-70
2022/09/18 08:15:45;;;;;;;2.78;0.75;;;13.20;99.90;;;;;;6182666;23;20503;-70
2022/09/18 08:18:10;;;;;;;3.00;0.70;;;13.10;99.90;;;;;;6182743;23;20001;-71
2022/09/18 08:20:37;;;;;;;2.22;0.57;;;13.10;99.90;;;;;;6183180;23;20419;-71
2022/09/18 08:23:04;;;;;;;5.05;0.73;;;13.00;99.90;;;;;;6182922;23;20072;-71
2022/09/18 08:25:29;;;;;;;4.45;0.70;;;12.90;99.90;;;;;;6182304;23;20412;-71
2022/09/18 08:28:02;;;;;;;7.13;0.75;;;12.70;99.90;;;;;;6181428;23;20075;-70
2022/09/18 08:30:29;;;;;;;6.00;0.80;;;12.60;99.90;;;;;;6182721;23;20024;-71
2022/09/18 08:33:03;;;;;;;2.90;0.63;;;12.60;99.90;;;;;;6181700;23;20032;-70
2022/09/18 08:35:30;;;;;;;2.65;0.98;;;12.60;99.90;;;;;;6183145;23;20426;-70
2022/09/18 08:37:56;;;;;;;4.07;0.85;;;12.50;99.90;;;;;;6182387;23;20004;-70
2022/09/18 08:40:47;;;;;;;5.95;1.00;;;12.60;99.90;;;;;;6182509;23;20013;-71
2022/09/18 08:43:28;;;;;;;3.63;0.75;;;12.80;99.90;;;;;;6161508;23;20012;-70
2022/09/18 08:46:05;;;;;;;6.85;0.70;;;12.80;99.90;;;;;;6181728;23;20008;-71
2022/09/18 08:48:36;;;;;;;4.70;0.75;;;12.90;99.90;;;;;;6182413;23;20002;-70
2022/09/18 08:51:23;;;;;;;2.83;0.65;;;12.90;99.90;;;;;;6182557;23;20055;-70
2022/09/18 08:53:53;;;;;;;3.13;0.95;;;12.80;99.90;;;;;;6182382;23;20013;-70
2022/09/18 08:56:23;;;;;;;2.22;0.60;;;12.90;99.90;;;;;;6182579;23;20099;-71
2022/09/18 08:58:56;;;;;;;5.43;0.63;;;12.90;99.90;;;;;;6182534;23;20005;-72
2022/09/18 09:01:27;;;;;;;4.07;0.82;;;12.90;99.90;;;;;;6181934;23;20009;-71
2022/09/18 09:04:06;;;;;;;6.05;1.42;;;12.90;99.90;;;;;;6181687;23;20054;-71
2022/09/18 09:06:48;;;;;;;5.10;0.90;;;12.90;99.90;;;;;;6181807;23;20051;-71
2022/09/18 09:09:42;;;;;;;5.20;1.42;;;13.00;99.90;;;;;;6181990;23;20012;-71
2022/09/18 09:12:11;;;;;;;3.15;0.65;;;13.00;99.90;;;;;;6181659;23;20005;-71
2022/09/18 09:14:48;;;;;;;6.65;1.13;;;13.00;99.90;;;;;;6181672;23;20009;-71
2022/09/18 09:17:37;;;;;;;3.63;0.63;;;12.90;99.90;;;;;;6182089;23;20001;-71
2022/09/18 09:20:18;;;;;;;3.70;0.90;;;13.10;99.90;;;;;;6180946;23;20144;-71
2022/09/18 09:23:03;;;;;;;4.30;0.93;;;13.50;99.90;;;;;;6181236;23;20143;-72
2022/09/18 09:25:50;;;;;;;5.25;0.80;;;13.50;99.90;;;;;;6181541;23;20002;-72
2022/09/18 09:28:42;;;;;;;4.63;0.70;;;13.70;99.90;;;;;;6181529;23;20111;-73
2022/09/18 09:31:12;;;;;;;4.15;0.77;;;13.80;99.90;;;;;;6179672;23;20001;-71
2022/09/18 09:34:05;;;;;;;2.28;0.68;;;13.80;99.90;;;;;;6181374;23;20386;-71
2022/09/18 09:36:35;;;;;;;6.82;1.08;;;13.90;99.90;;;;;;6177617;23;20037;-72
2022/09/18 09:39:14;;;;;;;6.35;0.80;;;13.90;99.90;;;;;;6180559;23;19997;-72
2022/09/18 09:41:44;;;;;;;3.92;0.82;;;13.80;99.90;;;;;;6179602;23;20007;-72
2022/09/18 09:44:19;;;;;;;5.13;0.70;;;13.70;99.90;;;;;;6181215;23;20081;-73
2022/09/18 09:47:14;;;;;;;5.32;0.77;;;14.50;99.90;;;;;;6179531;23;20013;-71
2022/09/18 09:49:46;;;;;;;4.68;0.70;;;13.40;99.90;;;;;;6181749;23;20025;-72
2022/09/18 09:52:25;;;;;;;5.07;1.00;;;13.30;99.90;;;;;;6180621;23;20427;-72
2022/09/18 09:55:11;;;;;;;7.80;1.85;;;13.40;99.90;;;;;;6180747;23;20235;-72
2022/09/18 09:57:45;;;;;;;2.92;0.60;;;13.50;99.90;;;;;;6181028;23;20001;-72
2022/09/18 10:00:19;;;;;;;1.95;0.52;;;13.40;99.90;;;;;;6180882;23;20104;-72
2022/09/18 10:03:02;;;;;;;3.42;0.68;;;13.60;99.90;;;;;;6180780;23;20076;-72
2022/09/18 10:05:38;;;;;;;3.65;0.93;;;13.80;99.90;;;;;;6181299;23;20441;-72
2022/09/18 10:08:09;;;;;;;3.08;0.98;;;13.90;99.90;;;;;;6181805;23;19997;-72
2022/09/18 10:10:44;;;;;;;4.47;0.95;;;14.00;99.90;;;;;;6182000;23;20001;-72
2022/09/18 10:13:17;;;;;;;2.63;0.60;;;15.50;99.90;;;;;;6181466;23;20001;-72
2022/09/18 10:15:45;;;;;;;1.70;0.60;;;14.20;99.90;;;;;;6179352;23;20047;-72
2022/09/18 10:18:29;;;;;;;4.90;0.70;;;14.20;99.90;;;;;;6182161;23;20012;-72
2022/09/18 10:21:02;;;;;;;2.92;0.90;;;14.20;99.90;;;;;;6181651;23;20036;-72
2022/09/18 10:23:35;;;;;;;7.30;1.08;;;14.20;99.90;;;;;;6183210;23;20458;-72
2022/09/18 10:26:01;;;;;;;3.40;0.93;;;14.30;99.90;;;;;;6181444;23;20415;-72
2022/09/18 10:28:28;;;;;;;2.30;0.60;;;14.20;99.90;;;;;;6181613;23;20028;-71
2022/09/18 10:31:05;;;;;;;4.40;0.75;;;14.30;99.90;;;;;;6181837;23;20470;-71
2022/09/18 10:33:34;;;;;;;3.13;0.63;;;14.20;99.90;;;;;;6182306;23;20001;-72
2022/09/18 10:36:07;;;;;;;2.47;0.50;;;14.30;99.90;;;;;;6180216;23;20001;-72
2022/09/18 10:38:33;;;;;;;4.35;0.63;;;14.50;99.90;;;;;;6182330;23;20051;-71
2022/09/18 10:41:23;;;;;;;4.22;0.60;;;15.30;99.90;;;;;;6181328;23;20434;-71
2022/09/18 10:44:24;;;;;;;3.05;0.68;;;14.50;99.90;;;;;;6180947;23;20046;-73
2022/09/18 10:46:56;;;;;;;2.85;0.52;;;14.40;99.90;;;;;;6172901;23;20005;-73
2022/09/18 10:49:41;;;;;;;3.03;0.60;;;14.40;99.90;;;;;;6182117;23;20028;-73
2022/09/18 10:52:19;;;;;;;6.20;1.25;;;14.40;99.90;;;;;;6181789;23;20056;-73
2022/09/18 10:55:04;;;;;;;8.05;1.15;;;14.40;99.90;;;;;;6179725;23;20044;-73
2022/09/18 10:57:39;;;;;;;3.58;0.90;;;14.40;99.90;;;;;;6181373;23;20002;-73
2022/09/18 11:00:11;;;;;;;4.82;1.40;;;14.40;99.90;;;;;;6181526;23;20013;-72
2022/09/18 11:02:45;;;;;;;3.05;1.02;;;14.40;99.90;;;;;;6181588;23;20001;-72
2022/09/18 11:05:15;;;;;;;;;;;14.40;99.90;;;;;;6182492;23;20505;-73
2022/09/18 11:07:47;;;;;;;6.28;1.13;;;14.30;99.90;;;;;;6181703;23;19951;-72
2022/09/18 11:10:19;;;;;;;3.20;0.50;;;14.50;99.90;;;;;;6181942;23;20001;-73
2022/09/18 11:12:49;;;;;;;3.15;0.50;;;14.40;99.90;;;;;;6180851;23;20431;-72
2022/09/18 11:15:18;;;;;;;2.97;0.50;;;14.30;99.90;;;;;;6181878;23;20036;-72
2022/09/18 11:17:55;;;;;;;4.35;0.60;;;14.50;99.90;;;;;;6181473;23;20001;-72
2022/09/18 11:20:26;;;;;;;5.82;0.55;;;14.50;99.90;;;;;;6181598;23;20051;-72
2022/09/18 11:22:52;;;;;;;2.67;0.60;;;14.50;99.90;;;;;;6181170;23;20331;-72
2022/09/18 11:25:22;;;;;;;4.63;1.30;;;14.50;99.90;;;;;;6181533;23;19997;-72
2022/09/18 11:27:51;;;;;;;6.20;0.60;;;15.00;99.90;;;;;;6180839;23;20457;-72
2022/09/18 11:30:20;;;;;;;2.47;0.70;;;14.40;99.90;;;;;;6181881;23;20092;-72
2022/09/18 11:32:49;;;;;;;3.63;1.33;;;14.30;99.90;;;;;;6181241;23;20020;-72
2022/09/18 11:35:18;;;;;;;3.95;0.95;;;15.70;99.90;;;;;;6180653;23;20009;-72
2022/09/18 11:37:52;;;;;;;4.13;0.70;;;14.10;99.90;;;;;;6180470;23;20009;-72
2022/09/18 11:40:25;;;;;;;1.58;0.52;;;14.10;99.90;;;;;;6180739;23;20335;-72
2022/09/18 11:42:53;;;;;;;5.47;0.98;;;14.00;99.90;;;;;;6180434;23;20009;-72
2022/09/18 11:45:33;;;;;;;5.53;0.50;;;14.60;99.90;;;;;;6180999;23;20359;-72
2022/09/18 11:48:14;;;;;;;3.80;0.50;;;14.10;99.90;;;;;;6180436;23;20005;-72
2022/09/18 11:50:40;;;;;;;3.38;0.47;;;14.00;99.90;;;;;;6180923;23;20001;-72
2022/09/18 11:53:18;;;;;;;2.80;0.77;;;13.80;99.90;;;;;;6180700;23;20080;-71
2022/09/18 11:56:01;;;;;;;3.47;0.43;;;13.90;99.90;;;;;;6180037;23;20383;-72
2022/09/18 11:58:33;;;;;;;3.28;0.63;;;13.90;99.90;;;;;;6180511;23;20001;-72
2022/09/18 12:01:21;;;;;;;3.08;0.40;;;13.90;99.90;;;;;;6180660;23;20123;-74
2022/09/18 12:04:15;;;;;;;1.63;0.50;;;13.90;99.90;;;;;;6121728;23;20088;-72
2022/09/18 12:06:57;;;;;;;5.97;0.50;;;14.20;99.90;;;;;;6182764;23;20331;-72
2022/09/18 12:09:39;;;;;;;6.40;0.90;;;13.90;99.90;;;;;;6182577;23;20076;-74
2022/09/18 12:12:18;;;;;;;5.13;0.70;;;14.00;99.90;;;;;;6182929;23;20016;-72
2022/09/18 12:14:57;;;;;;;2.50;0.80;;;13.90;99.90;;;;;;6183238;23;20084;-72
2022/09/18 12:17:54;;;;;;;5.93;0.82;;;13.90;99.90;;;;;;6183479;23;20021;-72
2022/09/18 12:20:32;;;;;;;4.25;1.05;;;13.90;99.90;;;;;;6183499;23;20005;-72
2022/09/18 12:22:59;;;;;;;2.50;0.77;;;13.90;99.90;;;;;;6182803;23;20001;-72
2022/09/18 12:25:45;;;;;;;8.85;0.98;;;14.00;99.90;;;;;;6182666;23;20005;-72
2022/09/18 12:28:33;;;;;;;3.20;0.80;;;14.10;99.90;;;;;;6181169;23;20063;-72
2022/09/18 12:31:13;;;;;;;3.92;0.95;;;14.00;99.90;;;;;;6182666;23;20009;-72
2022/09/18 12:33:48;;;;;;;5.55;0.75;;;13.90;99.90;;;;;;6182616;23;20028;-71
2022/09/18 12:36:29;;;;;;;3.67;0.57;;;13.50;99.90;;;;;;6183202;23;20047;-72
2022/09/18 12:39:22;;;;;;;1.98;0.55;;;13.90;99.90;;;;;;6182147;23;20005;-72
2022/09/18 12:41:50;;;;;;;5.40;0.73;;;14.00;99.90;;;;;;6182722;23;20005;-73
2022/09/18 12:44:32;;;;;;;4.85;0.70;;;13.90;99.90;;;;;;6181616;23;20021;-75
2022/09/18 12:47:26;;;;;;;4.60;0.60;;;14.00;99.90;;;;;;6182797;23;20061;-72
2022/09/18 12:49:54;;;;;;;4.63;1.05;;;13.80;99.90;;;;;;6181745;23;20483;-72
2022/09/18 12:52:38;;;;;;;3.22;0.50;;;13.90;99.90;;;;;;6182402;23;20008;-72
2022/09/18 12:55:35;;;;;;;2.67;0.57;;;13.90;99.90;;;;;;6182646;23;20419;-72
2022/09/18 12:58:26;;;;;;;3.42;0.70;;;13.90;99.90;;;;;;6182215;23;20008;-73
2022/09/18 13:00:52;;;;;;;2.25;0.50;;;13.90;99.90;;;;;;6181936;23;20071;-72
2022/09/18 13:03:34;;;;;;;3.17;0.70;;;13.80;99.90;;;;;;6182850;23;20481;-71
2022/09/18 13:06:18;;;;;;;3.60;0.63;;;13.60;99.90;;;;;;6182238;23;20001;-72
2022/09/18 13:09:18;;;;;;;;;;;13.80;99.90;;;;;;6180608;23;20016;-73
2022/09/18 13:11:49;;;;;;;2.92;0.45;;;13.80;99.90;;;;;;6117841;23;20424;-73